Wetterdaten: Woche 04.03.02 - 10.03.02 (KW10)
Datum Zeit Temperatur Luftfeuchte Luftdruck Regenmenge Wind Richtung Taupunkt Windchill
04.03.2002 00:00 -2.5 C 92 % 1022.0 hPa 0.0 l/m 0.0 km/h (0 Bft) N -3.6 C -2.5 C
04.03.2002 01:00 -3.1 C 92 % 1022.0 hPa 0.0 l/m 0.0 km/h (0 Bft) N -4.3 C -3.1 C
04.03.2002 02:00 -3.1 C 91 % 1022.0 hPa 0.0 l/m 0.0 km/h (0 Bft) N -4.4 C -3.1 C
04.03.2002 03:00 -3.4 C 90 % 1022.0 hPa 0.0 l/m 0.0 km/h (0 Bft) N -4.8 C -3.4 C
04.03.2002 04:00 -3.4 C 91 % 1022.0 hPa 0.0 l/m 0.0 km/h (0 Bft) N -4.6 C -3.4 C
04.03.2002 05:00 -3.8 C 91 % 1022.0 hPa 0.0 l/m 0.0 km/h (0 Bft) N -5.0 C -3.8 C
04.03.2002 06:00 -3.5 C 91 % 1022.0 hPa 0.0 l/m 0.0 km/h (0 Bft) N -4.8 C -3.5 C
04.03.2002 07:00 -3.3 C 94 % 1022.0 hPa 0.0 l/m 0.0 km/h (0 Bft) N -4.2 C -3.3 C
04.03.2002 08:00 -2.6 C 94 % 1022.0 hPa 0.0 l/m 0.0 km/h (0 Bft) N -3.4 C -2.6 C
04.03.2002 09:00 -0.5 C 85 % 1021.8 hPa 0.0 l/m 0.0 km/h (0 Bft) N -2.7 C -0.5 C
04.03.2002 10:00 2.7 C 67 % 1020.9 hPa 0.0 l/m 3.0 km/h (1 Bft) O-SO -2.8 C 2.2 C
04.03.2002 11:00 6.0 C 55 % 1020.6 hPa 0.0 l/m 13.4 km/h (3 Bft) O-SO -2.3 C 3.3 C
04.03.2002 12:00 7.7 C 50 % 1019.7 hPa 0.0 l/m 13.1 km/h (3 Bft) O-SO -2.2 C 5.4 C
04.03.2002 13:00 8.7 C 50 % 1018.9 hPa 0.0 l/m 16.8 km/h (3 Bft) SO -1.1 C 6.1 C
04.03.2002 14:00 9.4 C 46 % 1017.9 hPa 0.0 l/m 17.3 km/h (3 Bft) O-SO -1.7 C 6.9 C
04.03.2002 15:00 9.6 C 48 % 1017.4 hPa 0.0 l/m 20.0 km/h (4 Bft) SO -0.9 C 6.9 C
04.03.2002 16:00 9.3 C 47 % 1016.8 hPa 0.0 l/m 16.8 km/h (3 Bft) O-SO -1.4 C 6.8 C
04.03.2002 17:00 8.4 C 49 % 1016.0 hPa 0.0 l/m 8.8 km/h (2 Bft) O-SO -1.7 C 7.0 C
04.03.2002 18:00 5.7 C 55 % 1015.7 hPa 0.0 l/m 1.2 km/h (1 Bft) O-SO -2.8 C 5.6 C
04.03.2002 19:00 3.5 C 67 % 1015.9 hPa 0.0 l/m 2.7 km/h (1 Bft) O-SO -2.1 C 3.0 C
04.03.2002 20:00 1.6 C 80 % 1016.3 hPa 0.0 l/m 1.1 km/h (0 Bft) O-SO -1.5 C 1.4 C
04.03.2002 21:00 0.5 C 83 % 1016.8 hPa 0.0 l/m 0.5 km/h (0 Bft) O-SO -2.1 C 0.4 C
04.03.2002 22:00 -0.4 C 88 % 1015.9 hPa 0.0 l/m 1.7 km/h (1 Bft) O-SO -2.1 C -0.6 C
04.03.2002 23:00 -1.1 C 89 % 1015.7 hPa 0.0 l/m 0.5 km/h (0 Bft) O-SO -2.7 C -1.2 C
05.03.2002 00:00 -2.0 C 89 % 1015.1 hPa 0.0 l/m 0.1 km/h (0 Bft) O-SO -3.5 C -2.0 C
05.03.2002 01:00 -2.4 C 90 % 1014.7 hPa 0.0 l/m 0.0 km/h (0 Bft) N -3.8 C -2.4 C
05.03.2002 02:00 -2.6 C 91 % 1013.9 hPa 0.0 l/m 0.1 km/h (0 Bft) O -3.8 C -2.6 C
05.03.2002 03:00 -3.1 C 91 % 1013.6 hPa 0.0 l/m 0.5 km/h (0 Bft) O -4.3 C -3.1 C
05.03.2002 04:00 -3.2 C 91 % 1012.6 hPa 0.0 l/m 0.1 km/h (0 Bft) N -4.5 C -3.2 C
05.03.2002 05:00 -3.2 C 91 % 1011.5 hPa 0.0 l/m 0.0 km/h (0 Bft) N -4.5 C -3.2 C
05.03.2002 06:00 -3.5 C 90 % 1011.5 hPa 0.0 l/m 0.0 km/h (0 Bft) N -4.9 C -3.5 C
05.03.2002 07:00 -3.0 C 91 % 1011.5 hPa 0.0 l/m 1.7 km/h (1 Bft) O-SO -4.3 C -3.5 C
05.03.2002 08:00 -2.3 C 93 % 1011.9 hPa 0.0 l/m 0.1 km/h (0 Bft) NW -3.3 C -2.3 C
05.03.2002 09:00 -2.0 C 92 % 1012.6 hPa 0.0 l/m 3.4 km/h (1 Bft) SO -3.1 C -3.2 C
05.03.2002 10:00 -0.5 C 89 % 1012.6 hPa 0.0 l/m 3.0 km/h (1 Bft) SO -2.0 C -1.0 C
05.03.2002 11:00 2.1 C 79 % 1012.6 hPa 0.0 l/m 6.3 km/h (2 Bft) SO -1.2 C 0.5 C
05.03.2002 12:00 5.3 C 66 % 1012.6 hPa 0.0 l/m 4.9 km/h (1 Bft) SO -0.6 C 4.4 C
05.03.2002 13:00 6.8 C 59 % 1011.7 hPa 0.0 l/m 4.8 km/h (1 Bft) SO -0.7 C 6.1 C
05.03.2002 14:00 8.6 C 51 % 1010.6 hPa 0.0 l/m 2.0 km/h (1 Bft) O-SO -1.0 C 8.4 C
05.03.2002 15:00 9.3 C 50 % 1010.5 hPa 0.0 l/m 2.4 km/h (1 Bft) SO -0.6 C 9.1 C
05.03.2002 16:00 9.1 C 54 % 1010.5 hPa 0.0 l/m 2.0 km/h (1 Bft) O-SO 0.4 C 9.0 C
05.03.2002 17:00 7.3 C 63 % 1010.5 hPa 0.0 l/m 0.0 km/h (0 Bft) N 0.8 C 7.3 C
05.03.2002 18:00 5.0 C 73 % 1010.7 hPa 0.0 l/m 5.0 km/h (1 Bft) O-SO 0.5 C 4.2 C
05.03.2002 19:00 3.4 C 82 % 1011.5 hPa 0.0 l/m 2.4 km/h (1 Bft) O-SO 0.6 C 3.0 C
05.03.2002 20:00 2.0 C 87 % 1011.3 hPa 0.0 l/m 2.2 km/h (1 Bft) O-SO 0.0 C 1.6 C
05.03.2002 21:00 1.7 C 88 % 1011.9 hPa 0.0 l/m 0.2 km/h (0 Bft) O-SO -0.1 C 1.7 C
05.03.2002 22:00 1.5 C 89 % 1012.0 hPa 0.0 l/m 1.5 km/h (1 Bft) O-SO -0.1 C 1.5 C
05.03.2002 23:00 0.9 C 90 % 1012.0 hPa 0.0 l/m 0.4 km/h (0 Bft) O-SO -0.6 C 0.9 C
06.03.2002 00:00 0.9 C 91 % 1011.5 hPa 0.0 l/m 0.8 km/h (0 Bft) O-SO -0.3 C 0.7 C
06.03.2002 01:00 -0.1 C 92 % 1011.5 hPa 0.0 l/m 1.1 km/h (1 Bft) O -1.2 C -0.3 C
06.03.2002 02:00 -0.5 C 93 % 1010.9 hPa 0.0 l/m 0.6 km/h (0 Bft) O-SO -1.6 C -0.7 C
06.03.2002 03:00 -0.7 C 94 % 1010.5 hPa 0.0 l/m 0.3 km/h (0 Bft) O -1.6 C -0.7 C
06.03.2002 04:00 -0.7 C 94 % 1010.2 hPa 0.0 l/m 0.0 km/h (0 Bft) N -1.5 C -0.7 C
06.03.2002 05:00 -1.0 C 94 % 1010.4 hPa 0.0 l/m 0.5 km/h (0 Bft) O-SO -1.7 C -1.0 C
06.03.2002 06:00 -1.1 C 95 % 1009.4 hPa 0.0 l/m 1.3 km/h (1 Bft) O-SO -1.8 C -1.4 C
06.03.2002 07:00 -0.8 C 96 % 1009.2 hPa 0.0 l/m 3.9 km/h (1 Bft) O-SO -1.4 C -2.1 C
06.03.2002 08:00 -0.3 C 97 % 1009.5 hPa 0.0 l/m 1.4 km/h (1 Bft) O-SO -0.7 C -0.6 C
06.03.2002 09:00 1.1 C 94 % 1009.6 hPa 0.0 l/m 2.3 km/h (1 Bft) O-SO 0.3 C 0.6 C
06.03.2002 10:00 4.4 C 76 % 1010.5 hPa 0.0 l/m 2.2 km/h (1 Bft) SO 0.4 C 4.0 C
06.03.2002 11:00 7.3 C 58 % 1011.4 hPa 0.0 l/m 8.2 km/h (2 Bft) NW -0.4 C 5.9 C
06.03.2002 12:00 8.4 C 55 % 1011.5 hPa 0.0 l/m 14.3 km/h (3 Bft) NW -0.2 C 6.1 C
06.03.2002 13:00 9.5 C 52 % 1011.5 hPa 0.0 l/m 17.9 km/h (3 Bft) NW 0.1 C 7.4 C
06.03.2002 14:00 10.7 C 50 % 1011.5 hPa 0.0 l/m 18.4 km/h (3 Bft) NW 0.7 C 10.4 C
06.03.2002 15:00 11.2 C 51 % 1011.5 hPa 0.0 l/m 17.5 km/h (3 Bft) W-NW 1.5 C 11.2 C
06.03.2002 16:00 11.1 C 50 % 1011.5 hPa 0.0 l/m 16.0 km/h (3 Bft) W-NW 1.0 C 11.1 C
06.03.2002 17:00 10.1 C 54 % 1012.0 hPa 0.0 l/m 5.4 km/h (1 Bft) W-NW 1.1 C 9.8 C
06.03.2002 18:00 8.4 C 61 % 1013.1 hPa 0.0 l/m 9.5 km/h (2 Bft) NW 1.3 C 6.9 C
06.03.2002 19:00 6.9 C 69 % 1014.6 hPa 0.0 l/m 16.0 km/h (3 Bft) NW 1.5 C 4.0 C
06.03.2002 20:00 5.7 C 71 % 1015.7 hPa 0.0 l/m 25.2 km/h (4 Bft) NW 0.9 C 1.5 C
06.03.2002 21:00 5.4 C 72 % 1016.6 hPa 0.0 l/m 18.0 km/h (3 Bft) NW 0.8 C 1.9 C
06.03.2002 22:00 5.5 C 71 % 1016.8 hPa 0.0 l/m 9.5 km/h (2 Bft) NW 0.7 C 3.6 C
06.03.2002 23:00 5.7 C 71 % 1017.4 hPa 0.0 l/m 20.0 km/h (4 Bft) NW 0.8 C 2.0 C
07.03.2002 00:00 6.1 C 69 % 1018.2 hPa 0.0 l/m 22.6 km/h (4 Bft) NW 0.8 C 2.2 C
07.03.2002 01:00 6.3 C 69 % 1017.8 hPa 0.0 l/m 17.8 km/h (3 Bft) NW 1.1 C 3.1 C
07.03.2002 02:00 6.5 C 68 % 1018.8 hPa 0.0 l/m 9.9 km/h (2 Bft) W 0.9 C 4.6 C
07.03.2002 03:00 6.4 C 66 % 1018.9 hPa 0.0 l/m 6.4 km/h (2 Bft) W 0.6 C 5.2 C
07.03.2002 04:00 6.0 C 68 % 1018.9 hPa 0.0 l/m 4.0 km/h (1 Bft) W 0.6 C 5.3 C
07.03.2002 05:00 6.2 C 69 % 1018.9 hPa 0.0 l/m 9.5 km/h (2 Bft) W-NW 1.1 C 4.4 C
07.03.2002 06:00 6.0 C 69 % 1019.3 hPa 0.0 l/m 1.8 km/h (1 Bft) W 0.7 C 5.7 C
07.03.2002 07:00 6.2 C 68 % 1019.9 hPa 0.0 l/m 3.1 km/h (1 Bft) W 0.8 C 5.7 C
07.03.2002 08:00 6.8 C 62 % 1019.9 hPa 0.0 l/m 5.1 km/h (1 Bft) W 0.1 C 6.0 C
07.03.2002 09:00 7.5 C 60 % 1020.5 hPa 0.0 l/m 10.8 km/h (2 Bft) W 0.3 C 5.6 C
07.03.2002 10:00 9.1 C 55 % 1020.9 hPa 0.0 l/m 15.3 km/h (3 Bft) W 0.5 C 6.8 C
07.03.2002 11:00 10.1 C 51 % 1021.8 hPa 0.0 l/m 17.4 km/h (3 Bft) W 0.5 C 8.5 C
07.03.2002 12:00 11.2 C 48 % 1022.0 hPa 0.0 l/m 18.3 km/h (3 Bft) W-NW 0.7 C 11.2 C
07.03.2002 13:00 10.8 C 53 % 1022.0 hPa 0.0 l/m 21.7 km/h (4 Bft) NW 1.7 C 10.8 C
07.03.2002 14:00 11.6 C 51 % 1021.9 hPa 0.0 l/m 26.9 km/h (4 Bft) W-NW 1.8 C 11.6 C
07.03.2002 15:00 11.7 C 51 % 1022.0 hPa 0.0 l/m 24.2 km/h (4 Bft) NW 1.8 C 11.7 C
07.03.2002 16:00 11.4 C 53 % 1022.0 hPa 0.0 l/m 21.4 km/h (4 Bft) NW 2.2 C 11.4 C
07.03.2002 17:00 11.1 C 55 % 1022.0 hPa 0.0 l/m 16.9 km/h (3 Bft) NW 2.4 C 11.1 C
07.03.2002 18:00 10.4 C 61 % 1023.2 hPa 0.0 l/m 11.1 km/h (2 Bft) NW 3.1 C 10.4 C
07.03.2002 19:00 10.1 C 66 % 1024.4 hPa 0.0 l/m 9.5 km/h (2 Bft) NW 4.0 C 9.9 C
07.03.2002 20:00 9.8 C 67 % 1025.4 hPa 0.0 l/m 10.6 km/h (2 Bft) NW 4.0 C 8.4 C
07.03.2002 21:00 8.5 C 74 % 1026.2 hPa 0.0 l/m 7.3 km/h (2 Bft) W-NW 4.1 C 7.5 C
07.03.2002 22:00 7.0 C 83 % 1026.2 hPa 0.0 l/m 4.3 km/h (1 Bft) O-SO 4.3 C 6.4 C
07.03.2002 23:00 7.3 C 80 % 1026.2 hPa 0.0 l/m 1.3 km/h (1 Bft) NW 4.1 C 7.1 C
08.03.2002 00:00 6.2 C 85 % 1026.9 hPa 0.0 l/m 1.9 km/h (1 Bft) O-SO 3.8 C 6.0 C
08.03.2002 01:00 5.6 C 87 % 1027.2 hPa 0.0 l/m 1.6 km/h (1 Bft) O-SO 3.6 C 5.5 C
08.03.2002 02:00 5.9 C 85 % 1027.2 hPa 0.0 l/m 1.3 km/h (1 Bft) O-SO 3.5 C 5.8 C
08.03.2002 03:00 5.9 C 85 % 1027.2 hPa 0.0 l/m 0.6 km/h (0 Bft) O-SO 3.6 C 5.8 C
08.03.2002 04:00 6.1 C 84 % 1027.5 hPa 0.0 l/m 0.0 km/h (0 Bft) N 3.7 C 6.1 C
08.03.2002 05:00 5.5 C 85 % 1028.3 hPa 0.0 l/m 0.0 km/h (0 Bft) N 3.2 C 5.5 C
08.03.2002 06:00 4.0 C 91 % 1028.3 hPa 0.0 l/m 0.0 km/h (0 Bft) N 2.6 C 4.0 C
08.03.2002 07:00 3.4 C 92 % 1028.3 hPa 0.0 l/m 0.9 km/h (0 Bft) O-SO 2.2 C 3.4 C
08.03.2002 08:00 4.7 C 86 % 1029.0 hPa 0.0 l/m 0.0 km/h (0 Bft) N 2.6 C 4.7 C
08.03.2002 09:00 7.1 C 67 % 1028.3 hPa 0.0 l/m 0.4 km/h (0 Bft) NW 1.3 C 7.1 C
08.03.2002 10:00 10.0 C 55 % 1028.2 hPa 0.0 l/m 6.7 km/h (2 Bft) SO 1.5 C 9.9 C
08.03.2002 11:00 12.1 C 50 % 1027.2 hPa 0.0 l/m 9.9 km/h (2 Bft) O-SO 1.9 C 12.1 C
08.03.2002 12:00 12.4 C 48 % 1026.6 hPa 0.0 l/m 5.6 km/h (1 Bft) N-NO 1.8 C 12.4 C
08.03.2002 13:00 13.2 C 44 % 1025.6 hPa 0.0 l/m 5.2 km/h (1 Bft) NO 1.3 C 13.2 C
08.03.2002 14:00 13.9 C 43 % 1024.1 hPa 0.0 l/m 4.9 km/h (1 Bft) NO 1.6 C 13.9 C
08.03.2002 15:00 14.3 C 43 % 1023.0 hPa 0.0 l/m 11.0 km/h (2 Bft) O-SO 2.0 C 14.3 C
08.03.2002 16:00 13.7 C 44 % 1023.0 hPa 0.0 l/m 18.1 km/h (3 Bft) O-SO 1.7 C 13.7 C
08.03.2002 17:00 12.3 C 47 % 1022.0 hPa 0.0 l/m 11.5 km/h (2 Bft) O-SO 1.3 C 12.3 C
08.03.2002 18:00 10.2 C 53 % 1021.9 hPa 0.0 l/m 1.4 km/h (1 Bft) O-SO 0.9 C 10.2 C
08.03.2002 19:00 8.4 C 59 % 1022.0 hPa 0.0 l/m 3.4 km/h (1 Bft) O-SO 0.8 C 8.1 C
08.03.2002 20:00 6.6 C 65 % 1021.3 hPa 0.0 l/m 0.2 km/h (0 Bft) SO 0.4 C 6.6 C
08.03.2002 21:00 5.0 C 75 % 1020.9 hPa 0.0 l/m 0.1 km/h (0 Bft) SO 0.9 C 5.0 C
08.03.2002 22:00 4.0 C 79 % 1020.9 hPa 0.0 l/m 0.3 km/h (0 Bft) O-SO 0.7 C 4.0 C
08.03.2002 23:00 3.0 C 80 % 1020.2 hPa 0.0 l/m 2.6 km/h (1 Bft) O-SO -0.2 C 2.4 C
09.03.2002 00:00 2.3 C 85 % 1019.9 hPa 0.0 l/m 2.7 km/h (1 Bft) O-SO 0.0 C 1.8 C
09.03.2002 01:00 1.2 C 88 % 1019.8 hPa 0.0 l/m 2.1 km/h (1 Bft) O-SO -0.7 C 0.8 C
09.03.2002 02:00 0.5 C 90 % 1018.9 hPa 0.0 l/m 2.7 km/h (1 Bft) O-SO -1.0 C -0.0 C
09.03.2002 03:00 0.1 C 91 % 1018.2 hPa 0.0 l/m 3.4 km/h (1 Bft) O-SO -1.1 C -0.6 C
09.03.2002 04:00 -0.3 C 91 % 1017.8 hPa 0.0 l/m 0.2 km/h (0 Bft) O-SO -1.7 C -0.3 C
09.03.2002 05:00 -0.6 C 92 % 1017.8 hPa 0.0 l/m 0.0 km/h (0 Bft) N -1.8 C -0.6 C
09.03.2002 06:00 -0.8 C 92 % 1017.8 hPa 0.0 l/m 0.0 km/h (0 Bft) N -1.9 C -0.8 C
09.03.2002 07:00 0.1 C 92 % 1017.8 hPa 0.0 l/m 0.0 km/h (0 Bft) N -1.0 C 0.1 C
09.03.2002 08:00 1.5 C 87 % 1017.8 hPa 0.0 l/m 0.0 km/h (0 Bft) N -0.4 C 1.5 C
09.03.2002 09:00 4.1 C 78 % 1017.8 hPa 0.0 l/m 1.4 km/h (1 Bft) O-SO 0.5 C 3.8 C
09.03.2002 10:00 8.0 C 63 % 1017.6 hPa 0.0 l/m 10.3 km/h (2 Bft) SO 1.4 C 6.2 C
09.03.2002 11:00 10.8 C 53 % 1016.8 hPa 0.0 l/m 9.9 km/h (2 Bft) SO 1.6 C 10.3 C
09.03.2002 12:00 12.6 C 43 % 1016.0 hPa 0.0 l/m 18.0 km/h (3 Bft) W-NW 0.4 C 12.6 C
09.03.2002 13:00 13.5 C 41 % 1015.1 hPa 0.0 l/m 17.1 km/h (3 Bft) W-NW 0.3 C 13.5 C
09.03.2002 14:00 13.4 C 42 % 1014.7 hPa 0.0 l/m 17.7 km/h (3 Bft) NW 0.8 C 13.4 C
09.03.2002 15:00 13.7 C 42 % 1014.0 hPa 0.0 l/m 17.1 km/h (3 Bft) NW 1.1 C 13.7 C
09.03.2002 16:00 13.3 C 44 % 1013.6 hPa 0.0 l/m 14.1 km/h (3 Bft) NW 1.2 C 13.3 C
09.03.2002 17:00 12.4 C 47 % 1013.6 hPa 0.0 l/m 17.7 km/h (3 Bft) NW 1.5 C 12.4 C
09.03.2002 18:00 11.3 C 53 % 1014.6 hPa 0.0 l/m 21.2 km/h (4 Bft) NW 1.9 C 11.3 C
09.03.2002 19:00 11.0 C 53 % 1015.4 hPa 0.0 l/m 21.4 km/h (4 Bft) NW 1.7 C 11.0 C
09.03.2002 20:00 10.6 C 56 % 1015.8 hPa 0.0 l/m 21.2 km/h (4 Bft) NW 2.1 C 10.6 C
09.03.2002 21:00 9.5 C 64 % 1016.8 hPa 0.0 l/m 30.4 km/h (5 Bft) NW 3.0 C 6.2 C
09.03.2002 22:00 8.9 C 69 % 1017.2 hPa 0.0 l/m 32.3 km/h (5 Bft) NW 3.5 C 5.0 C
09.03.2002 23:00 8.3 C 70 % 1018.0 hPa 0.0 l/m 27.7 km/h (4 Bft) NW 3.1 C 4.6 C
10.03.2002 00:00 7.7 C 71 % 1018.9 hPa 0.0 l/m 21.3 km/h (4 Bft) NW 2.8 C 4.5 C
10.03.2002 01:00 7.2 C 72 % 1018.9 hPa 0.0 l/m 13.9 km/h (3 Bft) NW 2.5 C 4.6 C
10.03.2002 02:00 7.3 C 70 % 1018.9 hPa 0.0 l/m 7.0 km/h (2 Bft) W-NW 2.1 C 6.2 C
10.03.2002 03:00 7.4 C 68 % 1018.9 hPa 0.0 l/m 13.1 km/h (3 Bft) W-NW 1.8 C 5.2 C
10.03.2002 04:00 6.6 C 73 % 1019.8 hPa 0.0 l/m 7.3 km/h (2 Bft) W 2.0 C 5.3 C
10.03.2002 05:00 5.9 C 77 % 1019.9 hPa 0.0 l/m 16.7 km/h (3 Bft) NW 2.3 C 2.7 C
10.03.2002 06:00 5.7 C 78 % 1020.9 hPa 0.0 l/m 17.2 km/h (3 Bft) NW 2.2 C 2.3 C
10.03.2002 07:00 5.5 C 75 % 1021.3 hPa 0.0 l/m 7.1 km/h (2 Bft) NW 1.5 C 4.3 C
10.03.2002 08:00 6.4 C 69 % 1022.0 hPa 0.0 l/m 5.8 km/h (1 Bft) O-SO 1.1 C 5.3 C
10.03.2002 09:00 7.3 C 61 % 1022.0 hPa 0.0 l/m 2.4 km/h (1 Bft) W 0.2 C 7.0 C
10.03.2002 10:00 8.6 C 49 % 1022.0 hPa 0.0 l/m 6.0 km/h (2 Bft) W -1.5 C 7.8 C
10.03.2002 11:00 9.9 C 44 % 1022.0 hPa 0.0 l/m 5.7 km/h (1 Bft) NW -1.7 C 9.4 C
10.03.2002 12:00 11.5 C 43 % 1021.2 hPa 0.0 l/m 3.4 km/h (1 Bft) O-SO -0.8 C 11.5 C
10.03.2002 13:00 12.4 C 43 % 1020.8 hPa 0.0 l/m 5.7 km/h (1 Bft) SO 0.2 C 12.4 C
10.03.2002 14:00 12.9 C 43 % 1019.9 hPa 0.0 l/m 2.7 km/h (1 Bft) O-SO 0.6 C 12.9 C
10.03.2002 15:00 13.1 C 39 % 1019.0 hPa 0.0 l/m 4.0 km/h (1 Bft) O-SO -0.5 C 13.1 C
10.03.2002 16:00 13.0 C 38 % 1018.9 hPa 0.0 l/m 5.1 km/h (1 Bft) O-SO -1.0 C 13.0 C
10.03.2002 17:00 11.8 C 41 % 1017.8 hPa 0.0 l/m 1.7 km/h (1 Bft) O-SO -1.2 C 11.8 C
10.03.2002 18:00 9.4 C 48 % 1018.6 hPa 0.0 l/m 0.0 km/h (0 Bft) N -1.0 C 9.4 C
10.03.2002 19:00 6.3 C 66 % 1018.9 hPa 0.0 l/m 2.5 km/h (1 Bft) O-SO 0.4 C 6.0 C
10.03.2002 20:00 4.2 C 76 % 1019.4 hPa 0.0 l/m 1.2 km/h (1 Bft) O-SO 0.4 C 4.0 C
10.03.2002 21:00 2.9 C 81 % 1019.9 hPa 0.0 l/m 0.6 km/h (0 Bft) O -0.0 C 2.9 C
10.03.2002 22:00 2.0 C 85 % 1019.9 hPa 0.0 l/m 1.0 km/h (0 Bft) O -0.2 C 1.9 C
10.03.2002 23:00 1.1 C 88 % 1019.9 hPa 0.0 l/m 0.8 km/h (0 Bft) O-SO -0.7 C 1.1 C
Min-Datum _ 04.03.02 10.03.02 06.03.02 - 04.03.02 - 04.03.02 05.03.02
_ Min-Zeit 05:43 13:22 07:48 - 00:01 - 05:49 07:44
Minimum _ -4.0 C 37 % 1008.4 hPa - 0.0 km/h (0 Bft) - -5.4 C -6.0 C
Max-Datum _ 08.03.02 06.03.02 08.03.02 04.03.02 09.03.02 - 07.03.02 08.03.02
_ Max-Zeit 15:26 08:24 07:59 00:01 21:03 - 22:59 15:26
Maximum _ 14.5 C 97 % 1029.3 hPa 0.0 l/m 45.0 km/h
NW (6 Bft)
- 4.8 C 14.5 C
Durchschnitt _ 5.6 C 70 % 1018.1 hPa #0.0 l/m 7.1 km/h (2 Bft) NW 0.0 C 4.9 C

Durchschnitt Minimum Temp.4.8 C
Durchschnitt Maximum Temp.6.4 C
© Kaiko 2002